createdAt,value
2018-12-26T00:02:19.388Z,100453.31
2018-12-26T00:04:48.357Z,100447.41
2018-12-26T00:07:17.185Z,100440.06
2018-12-26T00:09:45.998Z,100440.87
2018-12-26T00:12:14.958Z,100449.52
2018-12-26T00:14:43.801Z,100445.67
2018-12-26T00:17:12.689Z,100440.13
2018-12-26T00:19:41.663Z,100438.47
2018-12-26T00:22:10.638Z,100430.72
2018-12-26T00:24:39.530Z,100423.48
2018-12-26T00:27:08.338Z,100422.22
2018-12-26T00:29:37.258Z,100422.73
2018-12-26T00:32:06.138Z,100429.23
2018-12-26T00:34:34.966Z,100433.14
2018-12-26T00:37:03.862Z,100434.86
2018-12-26T00:39:32.692Z,100435.69
2018-12-26T00:42:01.729Z,100440.47
2018-12-26T00:44:30.741Z,100434.96
2018-12-26T00:46:59.553Z,100438.02
2018-12-26T00:49:28.406Z,100427.70
2018-12-26T00:51:57.221Z,100415.62
2018-12-26T00:54:26.264Z,100406.20
2018-12-26T00:56:55.087Z,100402.39
2018-12-26T00:59:23.898Z,100404.53
2018-12-26T01:01:52.787Z,100400.67
2018-12-26T01:04:21.601Z,100404.41
2018-12-26T01:06:50.410Z,100400.52
2018-12-26T01:09:19.301Z,100400.01
2018-12-26T01:11:48.183Z,100403.09
2018-12-26T01:14:17.012Z,100398.83
2018-12-26T01:16:45.881Z,100405.67
2018-12-26T01:19:14.713Z,100407.91
2018-12-26T01:21:43.554Z,100412.66
2018-12-26T01:24:12.504Z,100410.08
2018-12-26T01:26:41.422Z,100410.36
2018-12-26T01:29:10.234Z,100419.80
2018-12-26T01:31:39.372Z,100407.84
2018-12-26T01:34:08.910Z,100405.77
2018-12-26T01:36:37.941Z,100401.48
2018-12-26T01:39:07.561Z,100401.08
2018-12-26T01:41:36.445Z,100402.37
2018-12-26T01:44:05.324Z,100402.41
2018-12-26T01:46:34.174Z,100398.17
2018-12-26T01:49:02.980Z,100390.07
2018-12-26T01:51:31.861Z,100388.81
2018-12-26T01:54:00.817Z,100380.98
2018-12-26T01:56:29.715Z,100371.12
2018-12-26T01:58:58.659Z,100375.43
2018-12-26T02:01:27.403Z,100384.06
2018-12-26T02:03:56.286Z,100387.03
2018-12-26T02:06:25.366Z,100385.13
2018-12-26T02:08:54.251Z,100384.80
2018-12-26T02:11:23.084Z,100387.55
2018-12-26T02:13:51.961Z,100385.39
2018-12-26T02:16:20.896Z,100376.86
2018-12-26T02:18:49.695Z,100367.64
2018-12-26T02:21:18.511Z,100368.45
2018-12-26T02:23:47.494Z,100376.75
2018-12-26T02:26:16.437Z,100359.16
2018-12-26T02:28:45.248Z,100363.47
2018-12-26T02:31:14.135Z,100368.59
2018-12-26T02:33:42.958Z,100364.32
2018-12-26T02:36:11.863Z,100364.32
2018-12-26T02:38:40.755Z,100361.34
2018-12-26T02:41:10.513Z,100363.94
2018-12-26T02:43:39.382Z,100377.70
2018-12-26T02:46:08.276Z,100366.61
2018-12-26T02:48:37.076Z,100369.16
2018-12-26T02:51:05.905Z,100372.63
2018-12-26T02:53:34.718Z,100370.48
2018-12-26T02:56:03.607Z,100366.23
2018-12-26T02:58:32.451Z,100363.27
2018-12-26T03:01:01.361Z,100365.87
2018-12-26T03:03:30.271Z,100359.41
2018-12-26T03:05:59.095Z,100370.17
2018-12-26T03:08:28.075Z,100368.89
2018-12-26T03:10:56.902Z,100368.46
2018-12-26T03:13:25.867Z,100363.73
2018-12-26T03:15:54.924Z,100349.59
2018-12-26T03:18:23.895Z,100336.28
2018-12-26T03:20:52.867Z,100323.77
2018-12-26T03:23:21.702Z,100327.23
2018-12-26T03:25:50.529Z,100323.85
2018-12-26T03:28:19.422Z,100321.72
2018-12-26T03:30:48.267Z,100305.86
2018-12-26T03:33:17.153Z,100311.45
2018-12-26T03:35:45.972Z,100312.70
2018-12-26T03:38:14.935Z,100314.42
2018-12-26T03:40:43.948Z,100322.15
2018-12-26T03:43:12.915Z,100331.59
2018-12-26T03:45:42.253Z,100328.15
2018-12-26T03:48:11.705Z,100328.17
2018-12-26T03:50:40.576Z,100326.05
2018-12-26T03:53:09.756Z,100330.75
2018-12-26T03:55:38.712Z,100329.44
2018-12-26T03:58:07.668Z,100341.08
2018-12-26T04:00:36.553Z,100333.38
2018-12-26T04:03:05.542Z,100325.66
2018-12-26T04:05:34.503Z,100318.36
2018-12-26T04:08:03.564Z,100324.80
2018-12-26T04:10:32.721Z,100323.08
2018-12-26T04:13:01.802Z,100329.91
2018-12-26T04:15:31.072Z,100335.06
2018-12-26T04:17:59.973Z,100336.77
2018-12-26T04:20:29.314Z,100338.06
2018-12-26T04:22:58.508Z,100336.35
2018-12-26T04:25:27.671Z,100335.50
2018-12-26T04:27:56.486Z,100342.78
2018-12-26T04:30:25.291Z,100339.73
2018-12-26T04:32:54.105Z,100341.43
2018-12-26T04:35:23.008Z,100345.28
2018-12-26T04:37:51.949Z,100347.01
2018-12-26T04:40:20.776Z,100356.44
2018-12-26T04:42:49.644Z,100350.44
2018-12-26T04:45:18.645Z,100350.88
2018-12-26T04:47:47.487Z,100347.50
2018-12-26T04:50:16.298Z,100336.36
2018-12-26T04:52:45.134Z,100336.35
2018-12-26T04:55:14.042Z,100338.09
2018-12-26T04:57:42.851Z,100350.94
2018-12-26T05:00:11.806Z,100344.49
2018-12-26T05:02:40.695Z,100337.66
2018-12-26T05:05:09.520Z,100343.20
2018-12-26T05:07:38.333Z,100339.80
2018-12-26T05:10:07.653Z,100348.37
2018-12-26T05:12:36.628Z,100347.05
2018-12-26T05:15:05.837Z,100374.09
2018-12-26T05:17:34.857Z,100376.23
2018-12-26T05:20:03.817Z,100380.08
2018-12-26T05:22:32.790Z,100386.48
2018-12-26T05:25:01.672Z,100384.80
2018-12-26T05:27:34.258Z,100381.38
2018-12-26T05:30:01.052Z,100382.22
2018-12-26T05:32:30.055Z,100378.81
2018-12-26T05:34:58.941Z,100388.24
2018-12-26T05:37:27.851Z,100392.06
2018-12-26T05:39:56.670Z,100400.22
2018-12-26T05:42:25.565Z,100386.53
2018-12-26T05:44:54.387Z,100381.81
2018-12-26T05:47:23.304Z,100378.38
2018-12-26T05:49:52.187Z,100374.96
2018-12-26T05:52:21.025Z,100379.22
2018-12-26T05:54:49.993Z,100389.09
2018-12-26T05:57:18.884Z,100384.36
2018-12-26T05:59:47.750Z,100395.53
2018-12-26T06:02:16.588Z,100388.64
2018-12-26T06:04:46.075Z,100389.02
2018-12-26T06:07:14.902Z,100403.20
2018-12-26T06:09:43.720Z,100400.14
2018-12-26T06:12:12.618Z,100395.84
2018-12-26T06:14:41.436Z,100396.71
2018-12-26T06:17:10.239Z,100390.70
2018-12-26T06:19:39.100Z,100394.55
2018-12-26T06:22:07.924Z,100400.68
2018-12-26T06:24:36.723Z,100400.68
2018-12-26T06:27:05.565Z,100401.07
2018-12-26T06:29:34.412Z,100391.62
2018-12-26T06:32:03.256Z,100395.91
2018-12-26T06:34:32.081Z,100401.89
2018-12-26T06:37:00.910Z,100396.72
2018-12-26T06:39:29.750Z,100407.01
2018-12-26T06:41:58.716Z,100404.40
2018-12-26T06:44:27.532Z,100404.86
2018-12-26T06:46:56.346Z,100404.03
2018-12-26T06:49:25.163Z,100405.36
2018-12-26T06:51:54.206Z,100404.94
2018-12-26T06:54:23.038Z,100404.48
2018-12-26T06:56:51.946Z,100398.45
2018-12-26T06:59:20.772Z,100399.31
2018-12-26T07:01:49.706Z,100401.85
2018-12-26T07:04:18.509Z,100402.69
2018-12-26T07:06:48.123Z,100406.54
2018-12-26T07:09:16.954Z,100409.54
2018-12-26T07:11:45.773Z,100403.95
2018-12-26T07:14:14.605Z,100398.79
2018-12-26T07:16:43.642Z,100396.27
2018-12-26T07:19:12.483Z,100404.84
2018-12-26T07:21:41.371Z,100404.35
2018-12-26T07:24:10.209Z,100405.67
2018-12-26T07:26:39.095Z,100404.02
2018-12-26T07:29:07.910Z,100407.87
2018-12-26T07:31:36.849Z,100409.60
2018-12-26T07:34:06.061Z,100413.84
2018-12-26T07:36:34.896Z,100425.02
2018-12-26T07:39:04.738Z,100426.34
2018-12-26T07:41:33.549Z,100425.04
2018-12-26T07:44:02.457Z,100425.45
2018-12-26T07:46:31.333Z,100437.91
2018-12-26T07:49:00.192Z,100439.18
2018-12-26T07:51:29.031Z,100429.27
2018-12-26T07:53:57.847Z,100426.23
2018-12-26T07:56:26.651Z,100427.53
2018-12-26T07:58:55.482Z,100423.14
2018-12-26T08:01:24.289Z,100427.81
2018-12-26T08:03:53.136Z,100421.03
2018-12-26T08:06:21.952Z,100420.97
2018-12-26T08:08:50.791Z,100418.84
2018-12-26T08:11:20.326Z,100425.23
2018-12-26T08:13:49.283Z,100421.75
2018-12-26T08:16:18.125Z,100425.58
2018-12-26T08:18:47.024Z,100425.62
2018-12-26T08:21:15.851Z,100417.95
2018-12-26T08:23:44.747Z,100414.02
2018-12-26T08:26:13.663Z,100408.89
2018-12-26T08:28:42.487Z,100412.82
2018-12-26T08:31:11.508Z,100424.52
2018-12-26T08:33:40.341Z,100427.07
2018-12-26T08:36:09.164Z,100430.95
2018-12-26T08:38:38.035Z,100425.36
2018-12-26T08:41:06.847Z,100425.36
2018-12-26T08:43:35.757Z,100430.95
2018-12-26T08:46:04.732Z,100432.72
2018-12-26T08:48:33.584Z,100439.62
2018-12-26T08:51:02.484Z,100440.48
2018-12-26T08:53:31.462Z,100436.17
2018-12-26T08:56:00.269Z,100436.14
2018-12-26T08:58:35.160Z,100436.88
2018-12-26T09:00:59.626Z,100437.84
2018-12-26T09:03:28.553Z,100437.84
2018-12-26T09:05:57.371Z,100436.15
2018-12-26T09:08:26.248Z,100442.17
2018-12-26T09:10:55.152Z,100437.88
2018-12-26T09:13:24.082Z,100436.56
2018-12-26T09:15:52.902Z,100445.56
2018-12-26T09:18:21.734Z,100442.53
2018-12-26T09:20:50.556Z,100447.66
2018-12-26T09:23:19.423Z,100448.91
2018-12-26T09:25:58.287Z,100455.33
2018-12-26T09:28:27.168Z,100451.88
2018-12-26T09:30:55.997Z,100444.98
2018-12-26T09:33:24.909Z,100444.77
2018-12-26T09:35:53.732Z,100446.05
2018-12-26T09:38:23.634Z,100440.48
2018-12-26T09:40:52.655Z,100437.28
2018-12-26T09:43:21.473Z,100435.62
2018-12-26T09:45:50.305Z,100433.55
2018-12-26T09:48:19.137Z,100443.08
2018-12-26T09:50:47.942Z,100440.63
2018-12-26T09:53:16.884Z,100437.14
2018-12-26T09:55:45.695Z,100444.06
2018-12-26T09:58:14.600Z,100439.78
2018-12-26T10:00:43.421Z,100435.31
2018-12-26T10:03:12.458Z,100430.68
2018-12-26T10:05:41.288Z,100431.23
2018-12-26T10:08:10.102Z,100435.98
2018-12-26T10:10:38.927Z,100434.67
2018-12-26T10:13:07.752Z,100436.33
2018-12-26T10:15:36.659Z,100437.63
2018-12-26T10:18:05.550Z,100438.44
2018-12-26T10:20:34.726Z,100436.74
2018-12-26T10:23:03.552Z,100443.58
2018-12-26T10:25:32.391Z,100446.89
2018-12-26T10:28:01.299Z,100444.63
2018-12-26T10:30:30.210Z,100451.19
2018-12-26T10:32:59.082Z,100448.68
2018-12-26T10:35:28.028Z,100450.03
2018-12-26T10:37:56.916Z,100438.91
2018-12-26T10:40:26.184Z,100437.13
2018-12-26T10:42:54.992Z,100433.70
2018-12-26T10:45:23.817Z,100430.52
2018-12-26T10:47:52.654Z,100428.50
2018-12-26T10:50:21.497Z,100421.14
2018-12-26T10:52:50.301Z,100416.66
2018-12-26T10:55:19.119Z,100405.73
2018-12-26T10:57:47.934Z,100400.44
2018-12-26T11:00:16.837Z,100402.13
2018-12-26T11:02:45.717Z,100406.22
2018-12-26T11:05:14.697Z,100402.91
2018-12-26T11:07:43.591Z,100402.75
2018-12-26T11:10:12.423Z,100399.32
2018-12-26T11:12:41.241Z,100393.59
2018-12-26T11:15:10.626Z,100389.09
2018-12-26T11:17:39.519Z,100382.56
2018-12-26T11:20:11.507Z,100378.56
2018-12-26T11:22:40.393Z,100372.36
2018-12-26T11:25:09.364Z,100365.10
2018-12-26T11:27:38.246Z,100366.17
2018-12-26T11:30:08.076Z,100366.53
2018-12-26T11:32:37.000Z,100368.53
2018-12-26T11:35:06.019Z,100358.30
2018-12-26T11:37:34.994Z,100348.80
2018-12-26T11:40:04.255Z,100349.51
2018-12-26T11:42:33.224Z,100340.75
2018-12-26T11:45:02.137Z,100344.97
2018-12-26T11:47:31.202Z,100341.61
2018-12-26T11:50:00.202Z,100343.11
2018-12-26T11:52:29.124Z,100342.50
2018-12-26T11:54:58.030Z,100331.81
2018-12-26T11:57:27.027Z,100323.56
2018-12-26T11:59:55.860Z,100319.16
2018-12-26T12:02:24.812Z,100321.52
2018-12-26T12:04:53.818Z,100317.61
2018-12-26T12:07:22.795Z,100318.22
2018-12-26T12:09:51.702Z,100320.97
2018-12-26T12:12:20.648Z,100317.62
2018-12-26T12:14:49.627Z,100319.72
2018-12-26T12:17:18.591Z,100316.53
2018-12-26T12:19:47.497Z,100314.85
2018-12-26T12:22:16.464Z,100312.27
2018-12-26T12:24:45.565Z,100307.44
2018-12-26T12:27:14.407Z,100310.12
2018-12-26T12:29:43.255Z,100310.50
2018-12-26T12:32:12.091Z,100313.62
2018-12-26T12:34:41.003Z,100301.77
2018-12-26T12:37:10.313Z,100300.00
2018-12-26T12:39:39.251Z,100298.77
2018-12-26T12:42:08.172Z,100304.22
2018-12-26T12:44:37.134Z,100305.45
2018-12-26T12:47:06.131Z,100299.70
2018-12-26T12:49:37.157Z,100301.91
2018-12-26T12:52:05.681Z,100307.75
2018-12-26T12:54:34.584Z,100307.75
2018-12-26T12:57:03.692Z,100300.08
2018-12-26T12:59:32.787Z,100297.11
2018-12-26T13:02:01.988Z,100287.88
2018-12-26T13:04:31.033Z,100288.50
2018-12-26T13:06:59.877Z,100285.94
2018-12-26T13:09:28.812Z,100291.56
2018-12-26T13:11:57.729Z,100290.28
2018-12-26T13:14:26.783Z,100274.62
2018-12-26T13:16:55.852Z,100280.30
2018-12-26T13:19:24.721Z,100280.84
2018-12-26T13:21:53.708Z,100278.08
2018-12-26T13:24:22.553Z,100275.88
2018-12-26T13:26:51.383Z,100274.09
2018-12-26T13:29:20.412Z,100283.38
2018-12-26T13:31:49.251Z,100278.38
2018-12-26T13:34:18.141Z,100273.09
2018-12-26T13:36:46.979Z,100274.66
2018-12-26T13:39:15.807Z,100278.05
2018-12-26T13:41:44.713Z,100277.17
2018-12-26T13:44:13.550Z,100270.78
2018-12-26T13:46:42.389Z,100276.08
2018-12-26T13:49:11.315Z,100271.47
2018-12-26T13:51:40.402Z,100275.47
2018-12-26T13:54:09.226Z,100271.27
2018-12-26T13:56:38.087Z,100281.70
2018-12-26T13:59:06.995Z,100278.72
2018-12-26T14:01:35.821Z,100274.30
2018-12-26T14:04:04.786Z,100274.33
2018-12-26T14:06:43.042Z,100284.32
2018-12-26T14:09:12.241Z,100286.16
2018-12-26T14:11:41.033Z,100282.19
2018-12-26T14:14:10.281Z,100277.15
2018-12-26T14:16:39.110Z,100282.83
2018-12-26T14:19:07.937Z,100282.81
2018-12-26T14:21:36.767Z,100287.77
2018-12-26T14:24:05.594Z,100289.50
2018-12-26T14:26:34.483Z,100288.52
2018-12-26T14:29:03.374Z,100290.75
2018-12-26T14:31:32.205Z,100289.20
2018-12-26T14:34:01.025Z,100291.11
2018-12-26T14:36:29.970Z,100289.16
2018-12-26T14:38:58.826Z,100297.44
2018-12-26T14:41:27.649Z,100294.47
2018-12-26T14:43:56.552Z,100296.22
2018-12-26T14:46:25.721Z,100305.34
2018-12-26T14:48:54.595Z,100299.47
2018-12-26T14:51:26.552Z,100299.98
2018-12-26T14:53:54.055Z,100307.36
2018-12-26T14:56:22.953Z,100304.75
2018-12-26T14:58:51.836Z,100311.28
2018-12-26T15:01:20.667Z,100306.55
2018-12-26T15:03:49.475Z,100308.71
2018-12-26T15:06:18.305Z,100310.43
2018-12-26T15:08:47.121Z,100320.31
2018-12-26T15:11:16.018Z,100320.31
2018-12-26T15:13:44.919Z,100319.96
2018-12-26T15:16:13.898Z,100322.13
2018-12-26T15:18:42.864Z,100313.98
2018-12-26T15:21:11.872Z,100313.11
2018-12-26T15:23:40.817Z,100317.01
2018-12-26T15:26:09.649Z,100309.61
2018-12-26T15:28:38.562Z,100312.27
2018-12-26T15:31:08.172Z,100307.15
2018-12-26T15:33:37.016Z,100304.91
2018-12-26T15:36:05.986Z,100303.62
2018-12-26T15:38:34.801Z,100304.16
2018-12-26T15:41:03.806Z,100301.17
2018-12-26T15:43:32.648Z,100300.77
2018-12-26T15:46:01.559Z,100303.77
2018-12-26T15:48:30.450Z,100294.34
2018-12-26T15:50:59.607Z,100293.89
2018-12-26T15:53:28.429Z,100296.45
2018-12-26T15:55:57.334Z,100298.66
2018-12-26T15:58:26.227Z,100287.05
2018-12-26T16:00:55.152Z,100286.25
2018-12-26T16:03:24.070Z,100283.32
2018-12-26T16:05:52.983Z,100287.21
2018-12-26T16:08:21.825Z,100294.11
2018-12-26T16:10:50.666Z,100292.84
2018-12-26T16:13:19.561Z,100291.16
2018-12-26T16:15:48.401Z,100292.46
2018-12-26T16:18:17.228Z,100291.17
2018-12-26T16:20:46.143Z,100292.44
2018-12-26T16:23:14.973Z,100292.03
2018-12-26T16:25:43.922Z,100294.22
2018-12-26T16:28:12.929Z,100289.50
2018-12-26T16:30:46.155Z,100290.66
2018-12-26T16:33:12.457Z,100287.19
2018-12-26T16:35:41.367Z,100279.63
2018-12-26T16:38:12.445Z,100285.14
2018-12-26T16:40:41.363Z,100278.88
2018-12-26T16:43:10.191Z,100276.75
2018-12-26T16:45:39.871Z,100277.22
2018-12-26T16:48:09.875Z,100280.27
2018-12-26T16:50:39.813Z,100286.39
2018-12-26T16:53:08.789Z,100285.61
2018-12-26T16:55:37.607Z,100281.77
2018-12-26T16:58:07.207Z,100286.10
2018-12-26T17:00:36.179Z,100280.94
2018-12-26T17:03:05.088Z,100284.78
2018-12-26T17:05:34.009Z,100287.34
2018-12-26T17:08:02.937Z,100285.06
2018-12-26T17:10:31.952Z,100283.20
2018-12-26T17:13:00.781Z,100280.99
2018-12-26T17:15:29.624Z,100285.11
2018-12-26T17:17:58.534Z,100280.79
2018-12-26T17:20:27.415Z,100277.68
2018-12-26T17:22:56.256Z,100275.39
2018-12-26T17:25:25.245Z,100276.27
2018-12-26T17:27:54.183Z,100273.73
2018-12-26T17:30:23.128Z,100271.95
2018-12-26T17:33:00.373Z,100266.09
2018-12-26T17:35:22.614Z,100275.18
2018-12-26T17:37:51.646Z,100273.48
2018-12-26T17:40:20.658Z,100270.91
2018-12-26T17:42:49.493Z,100274.34
2018-12-26T17:45:24.015Z,100272.50
2018-12-26T17:47:52.884Z,100277.67
2018-12-26T17:50:47.020Z,100271.42
2018-12-26T17:53:32.845Z,100275.80
2018-12-26T17:56:18.865Z,100275.38
2018-12-26T17:59:00.271Z,100273.27
2018-12-26T18:01:41.938Z,100271.67
2018-12-26T18:04:11.704Z,100263.94
2018-12-26T18:06:41.635Z,100269.56
2018-12-26T18:09:10.540Z,100265.73
2018-12-26T18:11:39.442Z,100271.27
2018-12-26T18:14:08.308Z,100265.67
2018-12-26T18:16:37.278Z,100268.27
2018-12-26T18:19:06.219Z,100274.59
2018-12-26T18:21:35.142Z,100268.59
2018-12-26T18:24:04.273Z,100266.50
2018-12-26T18:26:33.231Z,100267.02
2018-12-26T18:29:02.079Z,100270.47
2018-12-26T18:31:31.241Z,100268.77
2018-12-26T18:34:00.154Z,100264.48
2018-12-26T18:36:29.264Z,100262.34
2018-12-26T18:38:58.116Z,100264.08
2018-12-26T18:41:26.993Z,100262.38
2018-12-26T18:43:55.897Z,100263.24
2018-12-26T18:46:24.789Z,100259.80
2018-12-26T18:48:54.199Z,100258.09
2018-12-26T18:51:23.193Z,100257.19
2018-12-26T18:53:52.128Z,100258.91
2018-12-26T18:56:20.959Z,100254.61
2018-12-26T18:58:49.791Z,100255.89
2018-12-26T19:01:18.709Z,100251.91
2018-12-26T19:03:47.688Z,100259.56
2018-12-26T19:06:17.034Z,100247.98
2018-12-26T19:08:46.174Z,100244.62
2018-12-26T19:11:15.093Z,100243.77
2018-12-26T19:13:43.935Z,100246.38
2018-12-26T19:16:13.481Z,100246.79
2018-12-26T19:18:42.345Z,100243.77
2018-12-26T19:21:11.171Z,100240.34
2018-12-26T19:23:40.172Z,100246.75
2018-12-26T19:26:09.061Z,100242.39
2018-12-26T19:28:37.922Z,100243.23
2018-12-26T19:31:06.814Z,100238.15
2018-12-26T19:33:35.624Z,100239.42
2018-12-26T19:36:04.590Z,100239.91
2018-12-26T19:38:33.395Z,100236.94
2018-12-26T19:41:02.256Z,100230.58
2018-12-26T19:43:31.209Z,100223.34
2018-12-26T19:46:00.096Z,100229.34
2018-12-26T19:48:29.123Z,100225.08
2018-12-26T19:50:58.047Z,100222.11
2018-12-26T19:53:27.262Z,100215.69
2018-12-26T19:55:56.187Z,100214.81
2018-12-26T19:58:25.027Z,100216.94
2018-12-26T20:00:53.870Z,100210.13
2018-12-26T20:03:22.745Z,100209.28
2018-12-26T20:05:51.622Z,100217.44
2018-12-26T20:08:20.532Z,100206.70
2018-12-26T20:10:49.915Z,100198.98
2018-12-26T20:13:18.815Z,100201.14
2018-12-26T20:15:47.802Z,100198.98
2018-12-26T20:18:16.638Z,100197.70
2018-12-26T20:20:45.480Z,100196.41
2018-12-26T20:23:15.197Z,100197.28
2018-12-26T20:25:44.196Z,100192.98
2018-12-26T20:28:13.009Z,100188.70
2018-12-26T20:30:41.847Z,100186.98
2018-12-26T20:33:10.653Z,100183.95
2018-12-26T20:35:39.492Z,100185.64
2018-12-26T20:38:08.487Z,100189.91
2018-12-26T20:40:37.425Z,100181.80
2018-12-26T20:43:06.256Z,100182.64
2018-12-26T20:45:35.163Z,100186.53
2018-12-26T20:48:04.061Z,100181.83
2018-12-26T20:50:32.957Z,100186.10
2018-12-26T20:53:01.784Z,100183.97
2018-12-26T20:55:30.773Z,100185.70
2018-12-26T20:57:59.577Z,100182.75
2018-12-26T21:00:28.594Z,100180.16
2018-12-26T21:02:57.462Z,100181.45
2018-12-26T21:05:26.290Z,100182.70
2018-12-26T21:07:55.121Z,100180.56
2018-12-26T21:10:23.946Z,100183.56
2018-12-26T21:12:52.760Z,100179.27
2018-12-26T21:15:22.848Z,100175.01
2018-12-26T21:17:51.945Z,100174.56
2018-12-26T21:20:20.770Z,100175.05
2018-12-26T21:22:49.656Z,100169.45
2018-12-26T21:25:18.480Z,100171.98
2018-12-26T21:27:47.381Z,100165.56
2018-12-26T21:30:16.497Z,100167.72
2018-12-26T21:32:45.515Z,100169.91
2018-12-26T21:35:14.483Z,100173.33
2018-12-26T21:37:43.393Z,100166.91
2018-12-26T21:40:12.276Z,100161.31
2018-12-26T21:42:41.103Z,100160.39
2018-12-26T21:45:11.567Z,100159.58
2018-12-26T21:47:40.480Z,100152.36
2018-12-26T21:50:11.212Z,100143.38
2018-12-26T21:52:40.194Z,100148.06
2018-12-26T21:55:09.183Z,100139.80
2018-12-26T21:57:38.158Z,100126.95
2018-12-26T22:02:39.502Z,100131.16
2018-12-26T22:05:08.397Z,100133.64
2018-12-26T22:07:37.230Z,100134.81
2018-12-26T22:10:06.310Z,100139.80
2018-12-26T22:12:35.140Z,100138.03
2018-12-26T22:15:04.239Z,100135.53
2018-12-26T22:17:33.133Z,100134.74
2018-12-26T22:20:01.946Z,100140.38
2018-12-26T22:22:31.010Z,100142.58
2018-12-26T22:24:59.886Z,100146.91
2018-12-26T22:27:28.712Z,100153.36
2018-12-26T22:29:57.540Z,100151.25
2018-12-26T22:32:30.645Z,100156.45
2018-12-26T22:34:57.019Z,100155.59
2018-12-26T22:37:25.860Z,100155.59
2018-12-26T22:39:54.684Z,100160.69
2018-12-26T22:42:23.578Z,100154.25
2018-12-26T22:44:52.417Z,100150.39
2018-12-26T22:47:21.238Z,100147.38
2018-12-26T22:49:50.057Z,100147.81
2018-12-26T22:52:18.960Z,100143.52
2018-12-26T22:54:47.852Z,100142.64
2018-12-26T22:57:16.697Z,100146.10
2018-12-26T22:59:45.586Z,100143.10
2018-12-26T23:02:14.588Z,100141.36
2018-12-26T23:04:43.405Z,100133.66
2018-12-26T23:07:12.219Z,100127.25
2018-12-26T23:09:41.133Z,100125.92
2018-12-26T23:12:10.243Z,100122.80
2018-12-26T23:14:39.066Z,100119.23
2018-12-26T23:17:07.877Z,100121.86
2018-12-26T23:19:36.778Z,100125.78
2018-12-26T23:22:05.600Z,100125.01
2018-12-26T23:24:34.434Z,100129.72
2018-12-26T23:27:03.396Z,100122.44
2018-12-26T23:29:32.307Z,100122.89
2018-12-26T23:32:01.272Z,100116.03
2018-12-26T23:34:30.274Z,100107.48
2018-12-26T23:36:59.084Z,100092.84
2018-12-26T23:39:27.908Z,100090.25
2018-12-26T23:41:56.849Z,100091.48
2018-12-26T23:44:25.692Z,100091.47
2018-12-26T23:46:54.503Z,100086.66
2018-12-26T23:49:23.411Z,100085.78
2018-12-26T23:51:52.321Z,100086.66
2018-12-26T23:54:21.151Z,100090.59
2018-12-26T23:56:49.968Z,100081.13
2018-12-26T23:59:18.789Z,100086.40
